Time;durP1;ratioP1;P1;durP2;ratioP2;P2;SDS_P1;SDS_P2;PMS_P1;PMS_P2;Temp;Humidity;BMP_temperature;BMP_pressure;BME280_temperature;BME280_humidity;BME280_pressure;Samples;Min_cycle;Max_cycle;Signal;HPM_P1;HPM_P2
2023/07/31 00:00:40;;;;;;;1.83;1.65;;;;;;;;;;5096946;28;20024;-24
2023/07/31 00:03:06;;;;;;;1.52;1.42;;;;;;;;;;5097128;28;20058;-25
2023/07/31 00:05:32;;;;;;;1.88;1.60;;;;;;;;;;5096858;28;20016;-24
2023/07/31 00:07:58;;;;;;;2.25;1.50;;;;;;;;;;5096774;28;20490;-22
2023/07/31 00:10:24;;;;;;;1.58;1.48;;;;;;;;;;5096738;28;20024;-21
2023/07/31 00:12:50;;;;;;;1.75;1.65;;;;;;;;;;5096797;28;20459;-19
2023/07/31 00:15:16;;;;;;;2.35;1.77;;;;;;;;;;5096695;28;20020;-23
2023/07/31 00:17:43;;;;;;;1.98;1.88;;;;;;;;;;5096508;28;20067;-21
2023/07/31 00:20:09;;;;;;;2.35;1.52;;;;;;;;;;5095606;28;20023;-22
2023/07/31 00:22:36;;;;;;;1.85;1.75;;;;;;;;;;5096394;28;20097;-22
2023/07/31 00:25:02;;;;;;;2.10;1.90;;;;;;;;;;5096495;28;20404;-20
2023/07/31 00:27:28;;;;;;;1.73;1.40;;;;;;;;;;5095544;28;20122;-23
2023/07/31 00:29:54;;;;;;;1.63;1.52;;;;;;;;;;5096930;28;20028;-23
2023/07/31 00:32:20;;;;;;;1.85;1.60;;;;;;;;;;5096119;28;20028;-27
2023/07/31 00:34:46;;;;;;;1.80;1.70;;;;;;;;;;5096259;28;20451;-22
2023/07/31 00:37:13;;;;;;;1.95;1.85;;;;;;;;;;5096389;28;20031;-21
2023/07/31 00:39:39;;;;;;;2.00;1.90;;;;;;;;;;5096722;28;20034;-25
2023/07/31 00:42:05;;;;;;;1.65;1.55;;;;;;;;;;5095085;28;20020;-22
2023/07/31 00:44:31;;;;;;;2.75;1.75;;;;;;;;;;5096026;28;20347;-20
2023/07/31 00:46:59;;;;;;;1.80;1.70;;;;;;;;;;5096267;28;20099;-22
2023/07/31 00:49:25;;;;;;;2.00;1.80;;;;;;;;;;5095967;28;20024;-22
2023/07/31 00:51:51;;;;;;;1.90;1.70;;;;;;;;;;5095794;28;20036;-22
2023/07/31 00:54:18;;;;;;;1.58;1.48;;;;;;;;;;5095878;28;20481;-20
2023/07/31 00:56:45;;;;;;;1.70;1.60;;;;;;;;;;5095854;28;20052;-21
2023/07/31 00:59:11;;;;;;;1.95;1.80;;;;;;;;;;5095801;28;20024;-25
2023/07/31 01:01:38;;;;;;;1.88;1.77;;;;;;;;;;5095741;28;20020;-22
2023/07/31 01:04:04;;;;;;;1.90;1.80;;;;;;;;;;5095645;28;20028;-23
2023/07/31 01:06:41;;;;;;;1.75;1.58;;;;;;;;;;5095579;28;20032;-22
2023/07/31 01:09:12;;;;;;;1.65;1.55;;;;;;;;;;5095911;28;20024;-23
2023/07/31 01:11:59;;;;;;;1.67;1.58;;;;;;;;;;5095899;28;20028;-22
2023/07/31 01:14:25;;;;;;;4.18;3.13;;;;;;;;;;5095487;28;20031;-22
2023/07/31 01:16:51;;;;;;;1.65;1.55;;;;;;;;;;5095683;28;20348;-22
2023/07/31 01:19:20;;;;;;;2.10;2.00;;;;;;;;;;5095700;28;20027;-22
2023/07/31 01:22:02;;;;;;;1.98;1.88;;;;;;;;;;5095980;28;20489;-25
2023/07/31 01:24:31;;;;;;;1.92;1.83;;;;;;;;;;5095304;28;20469;-22
2023/07/31 01:26:58;;;;;;;2.75;2.53;;;;;;;;;;5095584;28;20032;-22
2023/07/31 01:29:43;;;;;;;1.98;1.88;;;;;;;;;;5095549;28;20028;-22
2023/07/31 01:32:10;;;;;;;1.50;1.40;;;;;;;;;;5095164;28;20024;-21
2023/07/31 01:34:36;;;;;;;2.03;1.70;;;;;;;;;;5095444;28;20032;-22
2023/07/31 01:37:03;;;;;;;2.15;1.95;;;;;;;;;;5095390;28;20040;-22
2023/07/31 01:39:29;;;;;;;2.10;1.95;;;;;;;;;;5095040;28;20020;-22
2023/07/31 01:41:55;;;;;;;2.03;1.92;;;;;;;;;;5094697;28;20077;-23
2023/07/31 01:44:21;;;;;;;2.10;1.90;;;;;;;;;;5095671;28;20095;-24
2023/07/31 01:46:47;;;;;;;1.92;1.70;;;;;;;;;;5095306;28;20046;-22
2023/07/31 01:49:14;;;;;;;1.90;1.80;;;;;;;;;;5095248;28;20058;-21
2023/07/31 01:51:40;;;;;;;1.98;1.88;;;;;;;;;;5094953;28;20024;-23
2023/07/31 01:54:06;;;;;;;1.90;1.80;;;;;;;;;;5094879;28;20035;-25
2023/07/31 01:56:32;;;;;;;1.90;1.80;;;;;;;;;;5094662;28;20378;-22
2023/07/31 01:58:58;;;;;;;1.65;1.55;;;;;;;;;;5095147;28;20020;-23
2023/07/31 02:01:24;;;;;;;1.52;1.42;;;;;;;;;;5094807;28;20474;-22
2023/07/31 02:03:50;;;;;;;1.50;1.40;;;;;;;;;;5094796;28;20459;-23
2023/07/31 02:06:16;;;;;;;3.00;1.90;;;;;;;;;;5094768;28;20028;-24
2023/07/31 02:08:42;;;;;;;1.77;1.67;;;;;;;;;;5094719;28;20037;-23
2023/07/31 02:11:09;;;;;;;1.70;1.60;;;;;;;;;;5094944;28;20036;-21
2023/07/31 02:13:35;;;;;;;2.72;2.00;;;;;;;;;;5094912;28;20028;-24
2023/07/31 02:16:01;;;;;;;1.58;1.48;;;;;;;;;;5095414;28;20428;-24
2023/07/31 02:18:27;;;;;;;1.70;1.60;;;;;;;;;;5094929;28;20415;-26
2023/07/31 02:20:53;;;;;;;1.77;1.67;;;;;;;;;;5094890;28;20024;-22
2023/07/31 02:23:20;;;;;;;2.42;2.22;;;;;;;;;;5094815;28;20400;-22
2023/07/31 02:25:46;;;;;;;1.55;1.45;;;;;;;;;;5094577;28;20052;-20
2023/07/31 02:28:12;;;;;;;2.38;2.03;;;;;;;;;;5094571;28;20036;-20
2023/07/31 02:30:38;;;;;;;1.73;1.48;;;;;;;;;;5094823;28;20383;-24
2023/07/31 02:33:05;;;;;;;1.58;1.48;;;;;;;;;;5094714;28;20085;-22
2023/07/31 02:35:32;;;;;;;3.00;2.53;;;;;;;;;;5094474;28;20028;-20
2023/07/31 02:37:58;;;;;;;1.70;1.60;;;;;;;;;;5094724;28;20036;-25
2023/07/31 02:40:24;;;;;;;2.00;1.90;;;;;;;;;;5094678;28;20024;-21
2023/07/31 02:42:50;;;;;;;2.70;2.20;;;;;;;;;;5094376;28;20047;-23
2023/07/31 02:45:16;;;;;;;3.20;1.90;;;;;;;;;;5094402;28;20466;-22
2023/07/31 02:47:42;;;;;;;2.42;1.50;;;;;;;;;;5094371;28;20082;-22
2023/07/31 02:50:09;;;;;;;2.60;1.58;;;;;;;;;;5094345;28;20026;-22
2023/07/31 02:52:35;;;;;;;2.03;1.88;;;;;;;;;;5093407;28;20046;-22
2023/07/31 02:55:01;;;;;;;1.80;1.70;;;;;;;;;;5095588;28;20048;-21
2023/07/31 02:57:27;;;;;;;1.90;1.80;;;;;;;;;;5098950;28;20344;-24
2023/07/31 02:59:53;;;;;;;2.00;1.80;;;;;;;;;;5098347;28;20024;-22
2023/07/31 03:02:19;;;;;;;1.95;1.85;;;;;;;;;;5098205;28;20024;-26
2023/07/31 03:04:45;;;;;;;1.77;1.67;;;;;;;;;;5098061;28;20471;-22
2023/07/31 03:07:12;;;;;;;2.08;1.98;;;;;;;;;;5098003;28;20039;-20
2023/07/31 03:09:38;;;;;;;4.00;2.13;;;;;;;;;;5098199;28;20021;-22
2023/07/31 03:12:04;;;;;;;1.83;1.67;;;;;;;;;;5098072;28;20082;-26
2023/07/31 03:14:30;;;;;;;2.72;1.52;;;;;;;;;;5096891;28;20503;-22
2023/07/31 03:16:57;;;;;;;2.05;1.95;;;;;;;;;;5097695;28;20028;-23
2023/07/31 03:19:23;;;;;;;2.13;2.03;;;;;;;;;;5097784;28;20055;-25
2023/07/31 03:21:49;;;;;;;1.80;1.70;;;;;;;;;;5097753;28;20048;-22
2023/07/31 03:24:15;;;;;;;1.63;1.52;;;;;;;;;;5097681;28;20492;-22
2023/07/31 03:26:41;;;;;;;2.05;1.85;;;;;;;;;;5097579;28;20074;-21
2023/07/31 03:29:08;;;;;;;2.58;1.80;;;;;;;;;;5097858;28;20039;-20
2023/07/31 03:31:34;;;;;;;2.13;1.95;;;;;;;;;;5097524;28;20024;-22
2023/07/31 03:34:00;;;;;;;2.40;1.98;;;;;;;;;;5097670;28;20517;-22
2023/07/31 03:36:26;;;;;;;1.70;1.60;;;;;;;;;;5097624;28;20024;-24
2023/07/31 03:38:52;;;;;;;1.73;1.63;;;;;;;;;;5097388;28;20017;-28
2023/07/31 03:41:19;;;;;;;2.03;1.83;;;;;;;;;;5097309;28;20020;-24
2023/07/31 03:43:47;;;;;;;2.53;2.03;;;;;;;;;;5097429;28;20024;-23
2023/07/31 03:46:13;;;;;;;2.35;2.22;;;;;;;;;;5097469;28;20036;-22
2023/07/31 03:48:39;;;;;;;2.22;2.03;;;;;;;;;;5097178;28;20078;-21
2023/07/31 03:51:05;;;;;;;2.38;2.10;;;;;;;;;;5097146;28;20055;-23
2023/07/31 03:53:31;;;;;;;2.45;2.05;;;;;;;;;;5097013;28;20032;-19
2023/07/31 03:55:57;;;;;;;2.10;1.90;;;;;;;;;;5096796;28;20047;-19
2023/07/31 03:58:24;;;;;;;2.08;1.88;;;;;;;;;;5096937;28;20328;-21
2023/07/31 04:00:50;;;;;;;2.60;2.40;;;;;;;;;;5097176;28;20108;-21
2023/07/31 04:03:16;;;;;;;2.10;1.73;;;;;;;;;;5096703;28;20024;-21
2023/07/31 04:05:42;;;;;;;1.88;1.77;;;;;;;;;;5096276;28;20034;-24
2023/07/31 04:08:08;;;;;;;2.30;2.10;;;;;;;;;;5096554;28;20020;-26
2023/07/31 04:10:35;;;;;;;3.10;1.90;;;;;;;;;;5096480;28;20020;-21
2023/07/31 04:13:01;;;;;;;1.90;1.65;;;;;;;;;;5096395;28;20085;-21
2023/07/31 04:15:27;;;;;;;2.47;2.28;;;;;;;;;;5096619;28;20031;-25
2023/07/31 04:17:53;;;;;;;2.00;1.90;;;;;;;;;;5096485;28;20347;-23
2023/07/31 04:20:19;;;;;;;2.03;1.88;;;;;;;;;;5096422;28;20020;-21
2023/07/31 04:22:45;;;;;;;2.40;2.00;;;;;;;;;;5096375;28;20023;-23
2023/07/31 04:25:11;;;;;;;2.17;1.90;;;;;;;;;;5095295;28;20020;-23
2023/07/31 04:27:37;;;;;;;2.25;2.05;;;;;;;;;;5096264;28;20038;-22
2023/07/31 04:30:04;;;;;;;2.22;2.03;;;;;;;;;;5096277;28;20028;-22
2023/07/31 04:32:30;;;;;;;4.03;2.03;;;;;;;;;;5096301;28;20388;-22
2023/07/31 04:34:56;;;;;;;2.08;1.88;;;;;;;;;;5096329;28;20024;-25
2023/07/31 04:37:22;;;;;;;2.75;2.45;;;;;;;;;;5095878;28;20470;-19
2023/07/31 04:39:48;;;;;;;3.53;1.85;;;;;;;;;;5095882;28;20028;-24
2023/07/31 04:42:14;;;;;;;4.60;2.28;;;;;;;;;;5096127;28;20384;-21
2023/07/31 04:44:40;;;;;;;2.53;2.13;;;;;;;;;;5096131;28;20028;-22
2023/07/31 04:47:07;;;;;;;2.00;1.77;;;;;;;;;;5096018;28;20111;-24
2023/07/31 04:49:33;;;;;;;2.40;2.20;;;;;;;;;;5095859;28;20035;-22
2023/07/31 04:51:59;;;;;;;1.88;1.77;;;;;;;;;;5095980;28;20109;-22
2023/07/31 04:54:25;;;;;;;4.32;2.40;;;;;;;;;;5095690;28;20035;-22
2023/07/31 04:56:52;;;;;;;3.38;2.40;;;;;;;;;;5095530;28;20371;-21
2023/07/31 04:59:18;;;;;;;4.13;2.53;;;;;;;;;;5096080;28;20028;-22
2023/07/31 05:01:47;;;;;;;4.50;2.65;;;;;;;;;;5095590;28;20370;-24
2023/07/31 05:04:14;;;;;;;8.00;4.32;;;;;;;;;;5095442;28;20081;-26
2023/07/31 05:06:40;;;;;;;4.57;2.70;;;;;;;;;;5095540;28;20028;-23
2023/07/31 05:09:06;;;;;;;9.95;2.35;;;;;;;;;;5095653;28;20032;-25
2023/07/31 05:11:32;;;;;;;9.60;3.25;;;;;;;;;;5095534;28;20328;-21
2023/07/31 05:13:59;;;;;;;9.38;2.78;;;;;;;;;;5095219;28;20409;-21
2023/07/31 05:16:25;;;;;;;15.00;3.75;;;;;;;;;;5095165;28;20099;-20
2023/07/31 05:18:51;;;;;;;6.40;2.47;;;;;;;;;;5094576;28;20378;-23
2023/07/31 05:21:17;;;;;;;3.65;2.47;;;;;;;;;;5095452;28;20089;-22
2023/07/31 05:23:43;;;;;;;2.22;2.03;;;;;;;;;;5095122;28;20039;-24
2023/07/31 05:26:09;;;;;;;3.30;2.00;;;;;;;;;;5095158;28;20052;-21
2023/07/31 05:28:36;;;;;;;4.32;2.88;;;;;;;;;;5095069;28;20028;-24
2023/07/31 05:31:03;;;;;;;4.18;2.67;;;;;;;;;;5094894;28;20024;-24
2023/07/31 05:33:29;;;;;;;10.38;1.98;;;;;;;;;;5095158;28;20089;-20
2023/07/31 05:35:55;;;;;;;10.48;2.80;;;;;;;;;;5095193;28;20066;-20
2023/07/31 05:38:21;;;;;;;5.22;2.28;;;;;;;;;;5095148;28;20016;-20
2023/07/31 05:40:48;;;;;;;4.03;2.20;;;;;;;;;;5094696;28;20078;-22
2023/07/31 05:43:14;;;;;;;3.08;2.25;;;;;;;;;;5094433;28;20085;-24
2023/07/31 05:45:41;;;;;;;3.95;2.72;;;;;;;;;;5094526;28;20020;-20
2023/07/31 05:48:07;;;;;;;5.47;2.58;;;;;;;;;;5094725;28;20044;-22
2023/07/31 05:50:33;;;;;;;5.20;2.65;;;;;;;;;;5094497;28;20081;-25
2023/07/31 05:52:59;;;;;;;3.72;2.47;;;;;;;;;;5094531;28;20020;-24
2023/07/31 05:55:28;;;;;;;5.60;2.33;;;;;;;;;;5094198;28;20107;-22
2023/07/31 05:57:54;;;;;;;3.95;2.20;;;;;;;;;;5094309;28;20024;-26
2023/07/31 06:03:17;;;;;;;3.10;2.60;;;;;;;;;;5487352;22;20052;-29
2023/07/31 06:05:44;;;;;;;2.47;1.92;;;;;;;;;;5094817;28;20028;-30
2023/07/31 06:08:10;;;;;;;5.70;2.55;;;;;;;;;;5094926;28;20386;-27
2023/07/31 06:10:36;;;;;;;5.70;2.40;;;;;;;;;;5094852;28;20034;-33
2023/07/31 06:13:02;;;;;;;8.60;2.70;;;;;;;;;;5094615;28;20020;-30
2023/07/31 06:15:30;;;;;;;2.50;2.25;;;;;;;;;;5094538;28;20051;-31
2023/07/31 06:17:56;;;;;;;4.97;3.10;;;;;;;;;;5094402;28;20461;-33
2023/07/31 06:20:22;;;;;;;4.90;2.53;;;;;;;;;;5094343;28;20031;-32
2023/07/31 06:22:48;;;;;;;8.32;2.80;;;;;;;;;;5094306;28;20054;-29
2023/07/31 06:25:14;;;;;;;4.90;2.35;;;;;;;;;;5094580;28;20050;-29
2023/07/31 06:27:40;;;;;;;10.68;2.55;;;;;;;;;;5094871;28;20024;-31
2023/07/31 06:30:07;;;;;;;7.30;3.30;;;;;;;;;;5097722;28;20047;-29
2023/07/31 06:32:33;;;;;;;3.03;2.15;;;;;;;;;;5098594;28;20032;-31
2023/07/31 06:34:59;;;;;;;8.35;2.88;;;;;;;;;;5098603;28;20032;-29
2023/07/31 06:37:25;;;;;;;3.33;2.35;;;;;;;;;;5098509;28;20032;-32
2023/07/31 06:39:52;;;;;;;4.25;2.63;;;;;;;;;;5097256;28;20081;-29
2023/07/31 06:42:18;;;;;;;4.50;2.47;;;;;;;;;;5097234;28;20346;-31
2023/07/31 06:44:44;;;;;;;8.25;2.58;;;;;;;;;;5098209;28;20107;-30
2023/07/31 06:47:10;;;;;;;4.15;3.30;;;;;;;;;;5098084;28;20089;-29
2023/07/31 06:49:36;;;;;;;3.75;2.45;;;;;;;;;;5098236;28;20509;-29
2023/07/31 06:52:02;;;;;;;5.10;2.83;;;;;;;;;;5098071;28;20093;-29
2023/07/31 06:54:29;;;;;;;8.18;2.60;;;;;;;;;;5097974;28;20089;-30
2023/07/31 06:56:55;;;;;;;3.50;2.90;;;;;;;;;;5098535;28;20071;-31
2023/07/31 06:59:21;;;;;;;16.35;3.97;;;;;;;;;;5097972;28;20028;-28
2023/07/31 07:01:47;;;;;;;10.07;3.15;;;;;;;;;;5097905;28;20020;-29
2023/07/31 07:04:14;;;;;;;6.18;3.08;;;;;;;;;;5096725;28;20047;-30
2023/07/31 07:06:40;;;;;;;8.05;3.30;;;;;;;;;;5098151;28;20125;-31
2023/07/31 07:09:07;;;;;;;8.43;2.58;;;;;;;;;;5098014;28;20028;-27
2023/07/31 07:11:34;;;;;;;6.78;2.42;;;;;;;;;;5097734;28;20395;-27
2023/07/31 07:14:00;;;;;;;4.20;3.10;;;;;;;;;;5097318;28;20020;-28
2023/07/31 07:16:26;;;;;;;5.95;2.95;;;;;;;;;;5097790;28;20413;-28
2023/07/31 07:18:52;;;;;;;6.55;2.63;;;;;;;;;;5097463;28;20020;-29
2023/07/31 07:21:19;;;;;;;5.07;2.40;;;;;;;;;;5097662;28;20085;-31
2023/07/31 07:23:45;;;;;;;9.60;2.85;;;;;;;;;;5097368;28;20055;-29
2023/07/31 07:26:11;;;;;;;5.80;2.63;;;;;;;;;;5097672;28;20020;-29
2023/07/31 07:28:37;;;;;;;3.28;2.75;;;;;;;;;;5097373;28;20028;-33
2023/07/31 07:31:03;;;;;;;6.85;3.40;;;;;;;;;;5097251;28;20443;-29
2023/07/31 07:33:30;;;;;;;8.40;3.63;;;;;;;;;;5097260;28;20028;-30
2023/07/31 07:35:56;;;;;;;5.13;2.67;;;;;;;;;;5097477;28;20358;-29
2023/07/31 07:38:22;;;;;;;11.05;3.55;;;;;;;;;;5097125;28;20035;-31
2023/07/31 07:40:50;;;;;;;7.70;3.10;;;;;;;;;;5095758;28;20100;-30
2023/07/31 07:43:16;;;;;;;11.13;2.80;;;;;;;;;;5096981;28;20012;-31
2023/07/31 07:45:42;;;;;;;6.47;3.17;;;;;;;;;;5097511;28;20516;-31
2023/07/31 07:48:08;;;;;;;7.10;2.38;;;;;;;;;;5096971;28;20036;-29
2023/07/31 07:50:35;;;;;;;4.80;2.80;;;;;;;;;;5097150;28;20032;-28
2023/07/31 07:53:01;;;;;;;5.35;2.75;;;;;;;;;;5096871;28;20108;-32
2023/07/31 07:55:27;;;;;;;8.18;3.22;;;;;;;;;;5097166;28;20361;-27
2023/07/31 07:57:53;;;;;;;8.05;3.03;;;;;;;;;;5097048;28;20370;-28
2023/07/31 08:00:19;;;;;;;10.95;2.72;;;;;;;;;;5096763;28;20024;-32
2023/07/31 08:02:45;;;;;;;6.03;2.33;;;;;;;;;;5095835;28;20075;-31
2023/07/31 08:05:12;;;;;;;3.00;2.70;;;;;;;;;;5097477;28;20020;-28
2023/07/31 08:07:38;;;;;;;5.63;3.08;;;;;;;;;;5097178;28;20023;-28
2023/07/31 08:10:04;;;;;;;2.60;2.22;;;;;;;;;;5097077;28;20102;-26
2023/07/31 08:12:30;;;;;;;12.77;3.50;;;;;;;;;;5096454;28;20038;-29
2023/07/31 08:14:57;;;;;;;8.95;2.50;;;;;;;;;;5096476;28;20027;-30
2023/07/31 08:17:23;;;;;;;6.10;2.38;;;;;;;;;;5096665;28;20059;-29
2023/07/31 08:19:49;;;;;;;4.50;2.25;;;;;;;;;;5096339;28;20019;-29
2023/07/31 08:22:15;;;;;;;4.88;2.50;;;;;;;;;;5096517;28;20028;-36
2023/07/31 08:24:41;;;;;;;7.22;2.70;;;;;;;;;;5096349;28;20012;-29
2023/07/31 08:27:07;;;;;;;4.72;2.53;;;;;;;;;;5096263;28;20477;-31
2023/07/31 08:29:34;;;;;;;2.92;2.63;;;;;;;;;;5096542;28;20031;-28
2023/07/31 08:32:01;;;;;;;5.53;2.90;;;;;;;;;;5096295;28;21961;-31
2023/07/31 08:34:27;;;;;;;7.03;2.25;;;;;;;;;;5096286;28;20039;-27
2023/07/31 08:36:53;;;;;;;6.07;2.97;;;;;;;;;;5096820;28;20083;-31
2023/07/31 08:39:19;;;;;;;4.45;2.40;;;;;;;;;;5096607;28;20020;-26
2023/07/31 08:41:45;;;;;;;3.00;2.72;;;;;;;;;;5096363;28;20354;-27
2023/07/31 08:44:12;;;;;;;6.28;2.85;;;;;;;;;;5096110;28;20089;-30
2023/07/31 08:46:38;;;;;;;5.18;2.50;;;;;;;;;;5096228;28;20028;-30
2023/07/31 08:49:06;;;;;;;18.52;3.30;;;;;;;;;;5096016;28;20059;-30
2023/07/31 08:51:33;;;;;;;7.05;2.65;;;;;;;;;;5095882;28;20103;-28
2023/07/31 08:53:59;;;;;;;5.07;2.58;;;;;;;;;;5095843;28;20124;-28
2023/07/31 08:56:26;;;;;;;5.20;2.88;;;;;;;;;;5095765;28;20454;-27
2023/07/31 08:58:53;;;;;;;4.68;2.60;;;;;;;;;;5095797;28;20051;-31
2023/07/31 09:01:20;;;;;;;5.53;2.92;;;;;;;;;;5095638;28;20012;-31
2023/07/31 09:03:46;;;;;;;3.90;3.55;;;;;;;;;;5095474;28;20435;-29
2023/07/31 09:06:13;;;;;;;5.38;2.83;;;;;;;;;;5095612;28;20043;-32
2023/07/31 09:08:42;;;;;;;7.85;3.35;;;;;;;;;;5095882;28;20461;-29
2023/07/31 09:11:08;;;;;;;6.85;2.80;;;;;;;;;;5095848;28;20026;-31
2023/07/31 09:13:34;;;;;;;5.03;2.75;;;;;;;;;;5095729;28;20028;-29
2023/07/31 09:16:00;;;;;;;4.82;2.25;;;;;;;;;;5094425;28;20024;-33
2023/07/31 09:18:27;;;;;;;3.53;2.25;;;;;;;;;;5095992;28;20034;-31
2023/07/31 09:21:05;;;;;;;6.50;2.90;;;;;;;;;;5095345;28;20031;-29
2023/07/31 09:23:45;;;;;;;4.10;2.20;;;;;;;;;;5095463;28;20362;-29
2023/07/31 09:26:11;;;;;;;4.93;2.40;;;;;;;;;;5095244;28;20046;-32
2023/07/31 09:28:37;;;;;;;7.82;2.38;;;;;;;;;;5095460;28;20327;-27
2023/07/31 09:31:04;;;;;;;4.32;2.55;;;;;;;;;;5095329;28;20032;-32
2023/07/31 09:33:31;;;;;;;5.40;2.45;;;;;;;;;;5095506;28;20101;-26
2023/07/31 09:35:59;;;;;;;5.90;2.45;;;;;;;;;;5095244;28;20032;-30
2023/07/31 09:38:26;;;;;;;6.00;2.28;;;;;;;;;;5094961;28;20024;-27
2023/07/31 09:40:52;;;;;;;2.22;1.98;;;;;;;;;;5095142;28;20024;-29
2023/07/31 09:43:19;;;;;;;7.75;3.47;;;;;;;;;;5095132;28;20020;-26
2023/07/31 09:45:46;;;;;;;3.33;1.92;;;;;;;;;;5095000;28;20353;-31
2023/07/31 09:48:16;;;;;;;9.02;2.53;;;;;;;;;;5094976;28;20111;-30
2023/07/31 09:50:43;;;;;;;3.90;2.70;;;;;;;;;;5095326;28;20059;-29
2023/07/31 09:53:09;;;;;;;6.90;3.33;;;;;;;;;;5094740;28;20032;-29
2023/07/31 09:55:36;;;;;;;4.57;2.95;;;;;;;;;;5095090;28;20056;-30
2023/07/31 09:58:20;;;;;;;3.20;2.60;;;;;;;;;;5095018;28;20020;-27
2023/07/31 10:00:47;;;;;;;3.45;2.83;;;;;;;;;;5095079;28;20431;-29
2023/07/31 10:03:13;;;;;;;3.33;2.55;;;;;;;;;;5094189;28;20048;-31
2023/07/31 10:05:50;;;;;;;9.65;3.08;;;;;;;;;;5076932;28;20052;-30
2023/07/31 10:08:18;;;;;;;9.77;3.00;;;;;;;;;;5095697;28;20024;-32
2023/07/31 10:10:45;;;;;;;5.95;2.97;;;;;;;;;;5094600;28;20027;-30
2023/07/31 10:13:12;;;;;;;12.77;2.88;;;;;;;;;;5094755;28;20024;-30
2023/07/31 10:15:38;;;;;;;8.23;3.55;;;;;;;;;;5093699;28;20039;-32
2023/07/31 10:18:07;;;;;;;6.03;3.30;;;;;;;;;;5094747;28;20024;-28
2023/07/31 10:20:34;;;;;;;8.70;2.80;;;;;;;;;;5094801;28;20091;-27
2023/07/31 10:23:00;;;;;;;3.63;3.08;;;;;;;;;;5094892;28;20103;-28
2023/07/31 10:25:27;;;;;;;5.20;3.10;;;;;;;;;;5094450;28;20376;-30
2023/07/31 10:27:53;;;;;;;8.35;3.00;;;;;;;;;;5094551;28;20048;-27
2023/07/31 10:30:21;;;;;;;6.03;2.92;;;;;;;;;;5094448;28;20032;-31
2023/07/31 10:32:49;;;;;;;5.68;3.30;;;;;;;;;;5094626;28;20024;-29
2023/07/31 10:35:16;;;;;;;9.88;2.70;;;;;;;;;;5094419;28;20076;-27
2023/07/31 10:37:43;;;;;;;9.82;2.97;;;;;;;;;;5094619;28;20355;-28
2023/07/31 10:40:13;;;;;;;11.90;3.33;;;;;;;;;;5094351;28;20042;-28
2023/07/31 10:42:50;;;;;;;13.10;3.37;;;;;;;;;;5094507;28;20031;-30
2023/07/31 10:45:36;;;;;;;10.75;3.97;;;;;;;;;;5094560;28;20016;-27
2023/07/31 10:48:03;;;;;;;7.15;3.20;;;;;;;;;;5094241;28;20039;-29
2023/07/31 10:50:32;;;;;;;9.93;3.08;;;;;;;;;;5094227;28;20028;-29
2023/07/31 10:53:00;;;;;;;11.00;3.85;;;;;;;;;;5094103;28;20036;-28
2023/07/31 10:55:26;;;;;;;12.68;2.90;;;;;;;;;;5094243;28;20028;-28
2023/07/31 10:57:56;;;;;;;8.32;3.50;;;;;;;;;;5094478;28;20355;-29
2023/07/31 11:00:22;;;;;;;6.70;3.25;;;;;;;;;;5094442;28;20051;-29
2023/07/31 11:03:04;;;;;;;7.35;2.83;;;;;;;;;;5093937;28;20114;-29
2023/07/31 11:05:50;;;;;;;4.03;3.15;;;;;;;;;;5094217;28;20016;-28
2023/07/31 11:08:17;;;;;;;12.13;4.40;;;;;;;;;;5094091;28;20031;-28
2023/07/31 11:10:45;;;;;;;5.03;3.03;;;;;;;;;;5094173;28;20024;-31
2023/07/31 11:13:11;;;;;;;3.95;2.78;;;;;;;;;;5094092;28;20423;-31
2023/07/31 11:15:37;;;;;;;4.65;3.00;;;;;;;;;;5094892;28;20088;-30
2023/07/31 11:18:05;;;;;;;7.05;2.95;;;;;;;;;;5098030;28;20400;-31
2023/07/31 11:20:31;;;;;;;12.73;3.90;;;;;;;;;;5096819;28;20032;-28
2023/07/31 11:23:06;;;;;;;13.60;3.28;;;;;;;;;;5097502;28;20024;-30
2023/07/31 11:25:32;;;;;;;5.53;3.22;;;;;;;;;;5097647;28;20099;-28
2023/07/31 11:28:02;;;;;;;11.27;3.33;;;;;;;;;;5098105;28;20023;-29
2023/07/31 11:30:28;;;;;;;7.68;3.28;;;;;;;;;;5097884;28;20019;-30
2023/07/31 11:32:56;;;;;;;9.15;4.75;;;;;;;;;;5097895;28;20035;-28
2023/07/31 11:35:22;;;;;;;10.93;3.42;;;;;;;;;;5097894;28;20023;-31
2023/07/31 11:37:48;;;;;;;4.70;2.83;;;;;;;;;;5097336;28;20024;-31
2023/07/31 11:40:15;;;;;;;8.93;2.70;;;;;;;;;;5097496;28;20056;-29
2023/07/31 11:42:41;;;;;;;4.97;3.03;;;;;;;;;;5097363;28;20063;-27
2023/07/31 11:45:09;;;;;;;6.97;3.00;;;;;;;;;;5097243;28;20073;-31
2023/07/31 11:47:36;;;;;;;4.13;3.08;;;;;;;;;;5097574;28;20054;-29
2023/07/31 11:50:03;;;;;;;10.30;3.88;;;;;;;;;;5097395;28;20101;-32
2023/07/31 11:52:32;;;;;;;3.00;2.63;;;;;;;;;;5097146;28;20024;-32
2023/07/31 11:54:58;;;;;;;3.05;2.55;;;;;;;;;;5096042;28;20400;-30
2023/07/31 11:57:25;;;;;;;8.95;3.10;;;;;;;;;;5097189;28;20034;-30
2023/07/31 11:59:52;;;;;;;11.10;3.13;;;;;;;;;;5097197;28;20330;-31
2023/07/31 12:02:19;;;;;;;4.15;2.50;;;;;;;;;;5097163;28;20093;-33
2023/07/31 12:04:46;;;;;;;7.10;2.65;;;;;;;;;;5097271;28;20056;-30
2023/07/31 12:07:15;;;;;;;6.63;4.07;;;;;;;;;;5096844;28;20102;-30
2023/07/31 12:09:54;;;;;;;4.75;3.72;;;;;;;;;;5096733;28;20024;-28
2023/07/31 12:12:24;;;;;;;9.75;2.92;;;;;;;;;;5096516;28;20020;-30
2023/07/31 12:14:51;;;;;;;6.70;2.92;;;;;;;;;;5096693;28;20062;-29
2023/07/31 12:17:18;;;;;;;13.15;2.65;;;;;;;;;;5096474;28;20036;-31
2023/07/31 12:19:44;;;;;;;8.20;2.47;;;;;;;;;;5096666;28;20351;-27
2023/07/31 12:22:14;;;;;;;3.63;2.78;;;;;;;;;;5096816;28;20436;-29
2023/07/31 12:24:44;;;;;;;9.10;2.65;;;;;;;;;;5096396;28;20016;-30
2023/07/31 12:27:14;;;;;;;9.40;3.13;;;;;;;;;;5096202;28;20024;-28
2023/07/31 12:29:43;;;;;;;11.18;3.97;;;;;;;;;;5096449;28;20081;-30
2023/07/31 12:32:22;;;;;;;3.58;2.67;;;;;;;;;;5096486;28;20035;-32
2023/07/31 12:34:48;;;;;;;8.77;3.85;;;;;;;;;;5096500;28;20066;-28
2023/07/31 12:37:14;;;;;;;7.22;3.72;;;;;;;;;;5096088;28;20513;-29
2023/07/31 12:39:40;;;;;;;8.27;3.05;;;;;;;;;;5095405;28;20067;-31
2023/07/31 12:42:07;;;;;;;6.57;3.05;;;;;;;;;;5096669;28;20024;-30
2023/07/31 12:44:33;;;;;;;5.00;2.78;;;;;;;;;;5095955;28;20020;-28
2023/07/31 12:46:59;;;;;;;5.55;2.95;;;;;;;;;;5096245;28;20387;-30
2023/07/31 12:49:25;;;;;;;4.82;2.97;;;;;;;;;;5095930;28;20028;-30
2023/07/31 12:51:53;;;;;;;6.28;3.10;;;;;;;;;;5096303;28;20028;-27
2023/07/31 12:54:20;;;;;;;3.28;2.63;;;;;;;;;;5095770;28;20020;-32
2023/07/31 12:56:46;;;;;;;4.03;3.22;;;;;;;;;;5095665;28;20032;-30
2023/07/31 12:59:12;;;;;;;8.40;3.45;;;;;;;;;;5095731;28;20021;-29
2023/07/31 13:01:38;;;;;;;7.20;3.45;;;;;;;;;;5095851;28;20085;-36
2023/07/31 13:04:04;;;;;;;12.57;3.38;;;;;;;;;;5095516;28;20041;-28
2023/07/31 13:06:30;;;;;;;11.18;2.97;;;;;;;;;;5096374;28;20116;-28
2023/07/31 13:08:57;;;;;;;9.20;3.60;;;;;;;;;;5096128;28;20028;-28
2023/07/31 13:11:23;;;;;;;8.15;3.00;;;;;;;;;;5095799;28;20028;-31
2023/07/31 13:13:49;;;;;;;5.85;2.88;;;;;;;;;;5095365;28;20316;-28
2023/07/31 13:16:15;;;;;;;5.32;2.97;;;;;;;;;;5095238;28;20042;-28
2023/07/31 13:18:41;;;;;;;5.40;3.78;;;;;;;;;;5094396;28;20059;-30
2023/07/31 13:21:07;;;;;;;5.70;3.00;;;;;;;;;;5095765;28;20070;-31
2023/07/31 13:23:33;;;;;;;10.75;3.08;;;;;;;;;;5095179;28;20024;-29
2023/07/31 13:25:59;;;;;;;7.72;2.88;;;;;;;;;;5095235;28;20024;-30
2023/07/31 13:28:26;;;;;;;10.20;3.40;;;;;;;;;;5094147;28;20032;-27
2023/07/31 13:30:52;;;;;;;16.80;4.47;;;;;;;;;;5095213;28;20471;-28
2023/07/31 13:33:18;;;;;;;8.65;3.13;;;;;;;;;;5095117;28;20069;-32
2023/07/31 13:35:44;;;;;;;12.30;3.60;;;;;;;;;;5095275;28;20056;-27
2023/07/31 13:38:10;;;;;;;22.17;4.20;;;;;;;;;;5094279;28;20358;-29
2023/07/31 13:40:36;;;;;;;13.45;3.67;;;;;;;;;;5095705;28;20082;-30
2023/07/31 13:43:02;;;;;;;6.55;3.13;;;;;;;;;;5095184;28;20106;-30
2023/07/31 13:45:29;;;;;;;6.53;2.88;;;;;;;;;;5095231;28;20020;-28
2023/07/31 13:47:55;;;;;;;10.45;4.78;;;;;;;;;;5094934;28;20103;-27
2023/07/31 13:50:22;;;;;;;4.68;2.88;;;;;;;;;;5094903;28;20055;-30
2023/07/31 13:52:48;;;;;;;6.43;3.30;;;;;;;;;;5095168;28;20111;-30
2023/07/31 13:55:14;;;;;;;9.15;3.50;;;;;;;;;;5094757;28;20454;-27
2023/07/31 13:57:43;;;;;;;11.95;4.07;;;;;;;;;;5094935;28;20116;-30
2023/07/31 14:00:09;;;;;;;12.55;3.40;;;;;;;;;;5095801;28;20038;-29
2023/07/31 14:02:36;;;;;;;7.82;3.45;;;;;;;;;;5094623;28;20073;-32
2023/07/31 14:05:02;;;;;;;8.93;3.15;;;;;;;;;;5094689;28;20040;-32
2023/07/31 14:07:29;;;;;;;4.22;3.13;;;;;;;;;;5094716;28;20020;-28
2023/07/31 14:09:55;;;;;;;6.18;3.28;;;;;;;;;;5094902;28;20032;-30
2023/07/31 14:12:21;;;;;;;6.20;3.05;;;;;;;;;;5094566;28;20042;-30
2023/07/31 14:14:47;;;;;;;6.20;3.40;;;;;;;;;;5094754;28;20391;-31
2023/07/31 14:17:14;;;;;;;7.00;3.20;;;;;;;;;;5094515;28;20024;-26
2023/07/31 14:19:40;;;;;;;5.80;3.42;;;;;;;;;;5094659;28;20031;-30
2023/07/31 14:22:06;;;;;;;8.95;3.85;;;;;;;;;;5094493;28;20072;-29
2023/07/31 14:24:32;;;;;;;6.18;2.55;;;;;;;;;;5093598;28;20024;-31
2023/07/31 14:26:58;;;;;;;6.68;3.28;;;;;;;;;;5094541;28;20020;-29
2023/07/31 14:29:25;;;;;;;7.63;4.57;;;;;;;;;;5094438;28;20032;-28
2023/07/31 14:31:51;;;;;;;5.22;3.28;;;;;;;;;;5094964;28;20093;-32
2023/07/31 14:34:17;;;;;;;5.07;3.17;;;;;;;;;;5094468;28;20043;-29
2023/07/31 14:36:44;;;;;;;10.13;3.80;;;;;;;;;;5094622;28;20465;-29
2023/07/31 14:39:10;;;;;;;11.43;3.65;;;;;;;;;;5093518;28;20024;-29
2023/07/31 14:41:36;;;;;;;13.32;3.88;;;;;;;;;;5094689;28;20024;-30